createdAt,value
2018-12-03T00:04:30.950Z,98934.91
2018-12-03T00:09:33.022Z,98934.13
2018-12-03T00:14:35.151Z,98926.48
2018-12-03T00:19:37.212Z,98923.30
2018-12-03T00:24:39.372Z,98921.35
2018-12-03T00:29:41.754Z,98926.96
2018-12-03T00:34:44.327Z,98934.28
2018-12-03T00:39:46.716Z,98946.20
2018-12-03T00:44:48.762Z,98937.59
2018-12-03T00:49:50.806Z,98947.11
2018-12-03T00:54:53.367Z,98946.67
2018-12-03T01:05:25.184Z,98936.57
2018-12-03T01:10:28.732Z,98943.02
2018-12-03T01:15:32.083Z,98936.09
2018-12-03T01:20:35.434Z,98912.55
2018-12-03T01:25:39.160Z,98913.07
2018-12-03T01:30:42.902Z,98897.55
2018-12-03T01:35:46.783Z,98915.38
2018-12-03T01:40:50.368Z,98919.08
2018-12-03T01:45:54.066Z,98921.06
2018-12-03T01:50:57.428Z,98909.78
2018-12-03T01:56:01.066Z,98919.41
2018-12-03T02:01:04.730Z,98921.17
2018-12-03T02:06:08.365Z,98926.66
2018-12-03T02:11:11.759Z,98923.64
2018-12-03T02:16:15.141Z,98921.70
2018-12-03T02:21:18.820Z,98923.86
2018-12-03T02:26:22.345Z,98916.84
2018-12-03T02:31:25.763Z,98920.02
2018-12-03T02:36:29.117Z,98904.89
2018-12-03T02:41:32.713Z,98913.36
2018-12-03T02:46:36.107Z,98913.33
2018-12-03T02:51:39.473Z,98908.88
2018-12-03T02:56:42.869Z,98911.39
2018-12-03T03:01:46.435Z,98916.88
2018-12-03T03:06:50.132Z,98912.94
2018-12-03T03:11:53.764Z,98908.91
2018-12-03T03:16:57.403Z,98915.27
2018-12-03T03:22:00.798Z,98917.74
2018-12-03T03:27:04.967Z,98910.20
2018-12-03T03:32:08.443Z,98911.53
2018-12-03T03:37:11.798Z,98901.94
2018-12-03T03:53:05.981Z,98906.55
2018-12-03T03:58:09.343Z,98906.55
2018-12-03T04:03:12.809Z,98905.46
2018-12-03T04:08:16.549Z,98904.55
2018-12-03T04:13:20.120Z,98895.55
2018-12-03T04:18:23.690Z,98890.00
2018-12-03T04:23:27.112Z,98883.88
2018-12-03T04:28:30.489Z,98877.27
2018-12-03T04:33:33.939Z,98876.86
2018-12-03T04:38:37.739Z,98866.06
2018-12-03T04:43:41.175Z,98867.39
2018-12-03T04:48:44.862Z,98866.13
2018-12-03T04:53:48.852Z,98875.34
2018-12-03T04:58:52.216Z,98880.83
2018-12-03T05:03:55.689Z,98869.35
2018-12-03T05:08:59.339Z,98851.59
2018-12-03T05:14:02.719Z,98867.59
2018-12-03T05:19:06.217Z,98862.55
2018-12-03T05:24:09.908Z,98859.86
2018-12-03T05:29:13.285Z,98869.05
2018-12-03T05:34:16.705Z,98871.63
2018-12-03T05:39:20.748Z,98874.73
2018-12-03T05:44:24.147Z,98874.73
2018-12-03T05:49:27.585Z,98877.11
2018-12-03T05:54:31.159Z,98881.97
2018-12-03T05:59:34.547Z,98869.98
2018-12-03T06:04:37.914Z,98874.02
2018-12-03T06:09:41.600Z,98868.94
2018-12-03T06:14:44.984Z,98869.16
2018-12-03T06:19:48.625Z,98866.59
2018-12-03T06:24:52.389Z,98859.66
2018-12-03T06:29:55.775Z,98858.83
2018-12-03T06:34:59.356Z,98866.67
2018-12-03T06:40:03.350Z,98853.05
2018-12-03T06:45:08.762Z,98867.09
2018-12-03T06:50:12.161Z,98857.67
2018-12-03T06:55:15.790Z,98856.78
2018-12-03T07:00:20.682Z,98870.22
2018-12-03T07:05:24.068Z,98871.45
2018-12-03T07:10:27.459Z,98883.65
2018-12-03T07:15:32.923Z,98886.30
2018-12-03T07:20:36.345Z,98886.41
2018-12-03T07:25:39.700Z,98894.36
2018-12-03T07:30:43.261Z,98894.27
2018-12-03T07:35:46.654Z,98887.83
2018-12-03T07:40:50.175Z,98909.32
2018-12-03T07:45:53.544Z,98904.80
2018-12-03T07:50:56.927Z,98889.92
2018-12-03T07:56:01.174Z,98902.54
2018-12-03T08:01:04.975Z,98889.03
2018-12-03T08:06:08.356Z,98882.30
2018-12-03T08:11:11.748Z,98878.45
2018-12-03T08:16:15.982Z,98884.77
2018-12-03T08:21:19.513Z,98903.47
2018-12-03T08:26:23.544Z,98901.61
2018-12-03T08:31:27.076Z,98895.73
2018-12-03T08:36:30.464Z,98903.68
2018-12-03T08:41:35.235Z,98918.05
2018-12-03T08:46:38.941Z,98910.78
2018-12-03T08:51:42.360Z,98921.55
2018-12-03T08:56:46.183Z,98936.63
2018-12-03T09:01:49.873Z,98943.88
2018-12-03T09:06:53.745Z,98945.63
2018-12-03T09:11:57.301Z,98957.53
2018-12-03T09:17:02.645Z,98961.56
2018-12-03T09:22:06.325Z,98967.11
2018-12-03T09:27:14.678Z,98970.70
2018-12-03T09:32:18.115Z,98973.63
2018-12-03T09:37:26.496Z,98971.61
2018-12-03T09:42:32.757Z,98959.58
2018-12-03T09:47:39.067Z,98969.03
2018-12-03T09:52:43.334Z,98965.08
2018-12-03T09:57:57.011Z,98968.23
2018-12-03T10:03:06.275Z,98965.77
2018-12-03T10:08:09.631Z,98950.67
2018-12-03T10:13:13.466Z,98948.25
2018-12-03T10:18:16.873Z,98958.83
2018-12-03T10:23:20.454Z,98946.00
2018-12-03T10:28:24.531Z,98941.03
2018-12-03T10:33:36.756Z,98941.67
2018-12-03T10:38:42.121Z,98938.08
2018-12-03T10:43:45.502Z,98947.31
2018-12-03T10:48:49.641Z,98954.30
2018-12-03T10:53:53.106Z,98950.52
2018-12-03T10:58:57.696Z,98938.05
2018-12-03T11:04:01.633Z,98924.85
2018-12-03T11:09:07.965Z,98935.97
2018-12-03T11:14:12.536Z,98940.34
2018-12-03T11:19:16.180Z,98940.23
2018-12-03T11:24:19.552Z,98924.47
2018-12-03T11:29:23.001Z,98925.55
2018-12-03T11:34:27.302Z,98924.13
2018-12-03T11:39:53.992Z,98918.07
2018-12-03T11:44:57.357Z,98926.08
2018-12-03T11:50:00.736Z,98924.92
2018-12-03T11:55:04.943Z,98930.28
2018-12-03T12:00:13.491Z,98927.92
2018-12-03T12:05:18.907Z,98938.13
2018-12-03T12:10:22.277Z,98932.41
2018-12-03T12:15:27.748Z,98943.38
2018-12-03T12:20:31.117Z,98926.20
2018-12-03T12:25:34.531Z,98921.16
2018-12-03T12:30:37.922Z,98908.66
2018-12-03T12:35:41.342Z,98902.64
2018-12-03T12:40:45.265Z,98894.87
2018-12-03T12:46:00.857Z,98880.27
2018-12-03T12:51:04.418Z,98883.82
2018-12-03T12:56:07.932Z,98889.23
2018-12-03T13:01:11.316Z,98887.78
2018-12-03T13:06:14.742Z,98893.98
2018-12-03T13:11:18.136Z,98897.50
2018-12-03T13:16:21.480Z,98901.23
2018-12-03T13:21:24.964Z,98893.61
2018-12-03T13:26:29.177Z,98889.88
2018-12-03T13:31:32.590Z,98886.45
2018-12-03T13:36:36.112Z,98886.00
2018-12-03T13:41:39.490Z,98888.45
2018-12-03T13:46:43.619Z,98888.16
2018-12-03T13:51:47.051Z,98889.48
2018-12-03T13:56:50.715Z,98885.56
2018-12-03T14:01:54.114Z,98881.06
2018-12-03T14:07:19.669Z,98889.08
2018-12-03T14:12:39.196Z,98886.91
2018-12-03T14:18:12.830Z,98882.02
2018-12-03T14:23:20.095Z,98894.48
2018-12-03T14:28:23.566Z,98900.09
2018-12-03T14:33:27.000Z,98899.92
2018-12-03T14:38:30.373Z,98904.14
2018-12-03T14:43:33.769Z,98890.05
2018-12-03T14:48:37.121Z,98913.09
2018-12-03T14:53:40.587Z,98913.97
2018-12-03T14:58:51.689Z,98916.64
2018-12-03T15:03:55.065Z,98917.10
2018-12-03T15:08:58.468Z,98913.47
2018-12-03T15:14:01.844Z,98918.16
2018-12-03T15:19:30.473Z,98930.01
2018-12-03T15:24:34.106Z,98920.43
2018-12-03T15:29:38.106Z,98903.83
2018-12-03T15:34:41.504Z,98891.84
2018-12-03T15:39:44.868Z,98904.48
2018-12-03T15:44:48.548Z,98906.78
2018-12-03T15:49:51.914Z,98904.63
2018-12-03T15:54:55.442Z,98916.51
2018-12-03T15:59:58.808Z,98918.07
2018-12-03T16:05:02.226Z,98911.24
2018-12-03T16:10:10.130Z,98906.49
2018-12-03T16:15:13.516Z,98912.66
2018-12-03T16:20:17.189Z,98905.91
2018-12-03T16:25:20.776Z,98908.59
2018-12-03T16:30:25.126Z,98904.63
2018-12-03T16:35:28.727Z,98900.41
2018-12-03T16:40:33.218Z,98908.98
2018-12-03T16:45:36.730Z,98904.95
2018-12-03T16:50:40.212Z,98912.39
2018-12-03T16:55:43.800Z,98921.48
2018-12-03T17:00:47.447Z,98932.92
2018-12-03T17:05:50.828Z,98939.70
2018-12-03T17:10:54.758Z,98929.75
2018-12-03T17:15:58.124Z,98924.59
2018-12-03T17:21:12.147Z,98919.20
2018-12-03T17:26:15.620Z,98932.05
2018-12-03T17:31:19.005Z,98918.31
2018-12-03T17:36:22.648Z,98920.45
2018-12-03T17:41:26.181Z,98909.07
2018-12-03T17:46:29.544Z,98918.42
2018-12-03T17:51:32.923Z,98922.00
2018-12-03T17:56:36.513Z,98923.63
2018-12-03T18:01:40.546Z,98922.75
2018-12-03T18:06:45.019Z,98924.01
2018-12-03T18:11:48.897Z,98912.86
2018-12-03T18:16:52.377Z,98910.61
2018-12-03T18:21:55.753Z,98905.76
2018-12-03T18:26:59.335Z,98905.36
2018-12-03T18:32:02.694Z,98890.98
2018-12-03T18:37:07.352Z,98891.75
2018-12-03T18:42:11.033Z,98888.80
2018-12-03T18:47:14.421Z,98882.45
2018-12-03T18:52:19.284Z,98892.00
2018-12-03T18:57:22.883Z,98885.91
2018-12-03T19:02:26.255Z,98889.11
2018-12-03T19:07:29.739Z,98882.40
2018-12-03T19:12:33.123Z,98885.30
2018-12-03T19:17:36.505Z,98887.77
2018-12-03T19:22:39.868Z,98883.66
2018-12-03T19:27:43.265Z,98896.16
2018-12-03T19:32:46.622Z,98904.93
2018-12-03T19:37:58.173Z,98907.84
2018-12-03T19:43:01.567Z,98900.05
2018-12-03T19:48:05.007Z,98887.53
2018-12-03T19:53:08.371Z,98889.50
2018-12-03T19:58:15.234Z,98881.85
2018-12-03T20:03:18.594Z,98877.93
2018-12-03T20:08:22.257Z,98871.84
2018-12-03T20:13:25.672Z,98876.24
2018-12-03T20:18:29.137Z,98881.31
2018-12-03T20:23:38.610Z,98888.23
2018-12-03T20:29:13.299Z,98891.16
2018-12-03T20:34:32.484Z,98886.94
2018-12-03T20:39:48.442Z,98877.20
2018-12-03T20:45:36.274Z,98888.74
2018-12-03T20:51:13.580Z,98887.20
2018-12-03T20:56:17.029Z,98885.19
2018-12-03T21:01:20.525Z,98899.53
2018-12-03T21:06:23.912Z,98909.19
2018-12-03T21:11:27.498Z,98911.05
2018-12-03T21:16:30.873Z,98906.52
2018-12-03T21:21:34.516Z,98900.05
2018-12-03T21:26:37.934Z,98902.84
2018-12-03T21:31:41.996Z,98906.76
2018-12-03T21:36:45.673Z,98897.03
2018-12-03T21:41:49.100Z,98904.48
2018-12-03T21:46:52.484Z,98898.16
2018-12-03T21:51:55.835Z,98910.95
2018-12-03T21:56:59.243Z,98918.41
2018-12-03T22:02:03.107Z,98931.30
2018-12-03T22:07:07.524Z,98941.03
2018-12-03T22:12:10.884Z,98945.88
2018-12-03T22:17:14.266Z,98963.98
2018-12-03T22:22:17.626Z,98960.75
2018-12-03T22:27:21.049Z,98969.34
2018-12-03T22:32:24.980Z,98969.34
2018-12-03T22:37:28.346Z,98965.93
2018-12-03T22:42:31.726Z,98967.11
2018-12-03T22:47:35.100Z,98966.56
2018-12-03T22:52:38.512Z,98971.02
2018-12-03T22:57:41.915Z,98960.67
2018-12-03T23:02:45.653Z,98960.73
2018-12-03T23:07:49.149Z,98959.99
2018-12-03T23:12:52.512Z,98964.20
2018-12-03T23:17:55.892Z,98969.73
2018-12-03T23:22:59.282Z,98980.56
2018-12-03T23:28:02.695Z,98991.55
2018-12-03T23:33:06.832Z,99000.27
2018-12-03T23:38:10.268Z,98993.47
2018-12-03T23:43:22.733Z,99001.77
2018-12-03T23:48:26.106Z,98999.73
2018-12-03T23:53:29.503Z,98997.14
2018-12-03T23:58:32.937Z,99009.03
